LRIA

Details ICAO LRIA (IAS)
Name IASI
Region Romania
Timezone Europe/Bucharest (UTC+2.0)
Plans Departing 51
Arriving 51
Stats Elevation 397 ft / 121 m (AMSL)
Location 47.178490° 27.620632°
Runways 1
Magnetic Variation 6.316° E
Sunrise 2017-12-15 05:50:39 UTC / 2017-12-15 07:50:39 Local
Sunset 2017-12-15 14:21:24 UTC / 2017-12-15 16:21:24 Local
Advertisement - Login to hide

Runways

ID Width Length Bearing (true) Bearing (mag) Surface Threshold Offset Overrun Length
15 98 ft / 30 m 5,841 ft / 1,780 m 154.46° 148.14° Concrete 0 ft / 0 m 0 ft / 0 m
33 98 ft / 30 m 5,841 ft / 1,780 m 334.46° 328.14° Concrete 0 ft / 0 m 0 ft / 0 m

Approach Navaids

Runway Type Ident Frequency Range Bearing (true) Bearing (mag) Slope Elevation
15 Localiser IIS 109.10 MHz 18 nm / 33 km 154.92° 148.60° - 397 ft / 121 m (AMSL)
15 Glidescope IIS 109.10 MHz 10 nm / 19 km 154.46° 148.15° 3.00° 397 ft / 121 m (AMSL)
15 DME IIS 109.10 MHz 18 nm / 33 km - - - 500 ft / 152 m (AMSL)

Map

Weather


0- 5 10 15 20 25 30 35+ Temperature / ° C

Clouds and Precipitation
Forecast for 2017-12-15 06:00 UTC. Updated an hour ago

Ground ~20,000 ft ~40,000 ft Winds

METAR

LRIA 150630Z 08009KT 6000 NSC 03/02 Q1007 R14/29//95

TAF

Not found

Frequencies

Tower 119.20 MHz TWR
Approach 118.80 MHz PRECISION
Approach 119.20 MHz APP
Warning: Do not use this data for real-world aviation or navigation. No guarantee of current accuracy is given.